sensor_id;sensor_type;location;lat;lon;timestamp;P1;durP1;ratioP1;P2;durP2;ratioP2
25569;SDS011;17955;45.542;9.238;2022-10-31T00:00:08;24.00;;;10.13;;
25569;SDS011;17955;45.542;9.238;2022-10-31T00:02:41;15.38;;;7.28;;
25569;SDS011;17955;45.542;9.238;2022-10-31T00:05:09;20.70;;;8.10;;
25569;SDS011;17955;45.542;9.238;2022-10-31T00:07:36;15.68;;;7.53;;
25569;SDS011;17955;45.542;9.238;2022-10-31T00:10:04;18.92;;;7.88;;
25569;SDS011;17955;45.542;9.238;2022-10-31T00:12:31;21.98;;;8.25;;
25569;SDS011;17955;45.542;9.238;2022-10-31T00:14:59;21.85;;;7.57;;
25569;SDS011;17955;45.542;9.238;2022-10-31T00:17:26;17.15;;;8.10;;
25569;SDS011;17955;45.542;9.238;2022-10-31T00:19:53;18.55;;;7.97;;
25569;SDS011;17955;45.542;9.238;2022-10-31T00:22:23;16.92;;;7.82;;
25569;SDS011;17955;45.542;9.238;2022-10-31T00:24:50;20.83;;;8.32;;
25569;SDS011;17955;45.542;9.238;2022-10-31T00:27:17;21.98;;;7.95;;
25569;SDS011;17955;45.542;9.238;2022-10-31T00:29:45;14.80;;;7.20;;
25569;SDS011;17955;45.542;9.238;2022-10-31T00:32:12;21.98;;;8.55;;
25569;SDS011;17955;45.542;9.238;2022-10-31T00:34:39;29.85;;;8.80;;
25569;SDS011;17955;45.542;9.238;2022-10-31T00:37:07;16.92;;;6.60;;
25569;SDS011;17955;45.542;9.238;2022-10-31T00:39:35;17.92;;;8.25;;
25569;SDS011;17955;45.542;9.238;2022-10-31T00:42:03;22.63;;;8.02;;
25569;SDS011;17955;45.542;9.238;2022-10-31T00:44:30;12.60;;;7.78;;
25569;SDS011;17955;45.542;9.238;2022-10-31T00:46:57;14.77;;;7.30;;
25569;SDS011;17955;45.542;9.238;2022-10-31T00:49:25;15.60;;;7.03;;
25569;SDS011;17955;45.542;9.238;2022-10-31T00:51:52;17.70;;;6.82;;
25569;SDS011;17955;45.542;9.238;2022-10-31T00:54:19;16.98;;;7.35;;
25569;SDS011;17955;45.542;9.238;2022-10-31T00:56:48;19.83;;;7.40;;
25569;SDS011;17955;45.542;9.238;2022-10-31T00:59:15;20.13;;;8.65;;
25569;SDS011;17955;45.542;9.238;2022-10-31T01:01:42;18.77;;;7.43;;
25569;SDS011;17955;45.542;9.238;2022-10-31T01:04:10;16.23;;;7.20;;
25569;SDS011;17955;45.542;9.238;2022-10-31T01:06:37;19.67;;;6.93;;
25569;SDS011;17955;45.542;9.238;2022-10-31T01:09:04;16.73;;;8.05;;
25569;SDS011;17955;45.542;9.238;2022-10-31T01:11:31;16.77;;;7.72;;
25569;SDS011;17955;45.542;9.238;2022-10-31T01:14:03;19.23;;;7.38;;
25569;SDS011;17955;45.542;9.238;2022-10-31T01:16:31;13.65;;;7.18;;
25569;SDS011;17955;45.542;9.238;2022-10-31T01:18:59;15.75;;;7.10;;
25569;SDS011;17955;45.542;9.238;2022-10-31T01:21:27;15.48;;;7.43;;
25569;SDS011;17955;45.542;9.238;2022-10-31T01:23:57;17.35;;;6.53;;
25569;SDS011;17955;45.542;9.238;2022-10-31T01:26:25;13.13;;;7.00;;
25569;SDS011;17955;45.542;9.238;2022-10-31T01:28:54;18.02;;;6.97;;
25569;SDS011;17955;45.542;9.238;2022-10-31T01:31:24;16.83;;;7.40;;
25569;SDS011;17955;45.542;9.238;2022-10-31T01:33:52;22.13;;;7.78;;
25569;SDS011;17955;45.542;9.238;2022-10-31T01:36:20;11.50;;;6.47;;
25569;SDS011;17955;45.542;9.238;2022-10-31T01:38:52;14.00;;;6.53;;
25569;SDS011;17955;45.542;9.238;2022-10-31T01:41:22;12.18;;;6.28;;
25569;SDS011;17955;45.542;9.238;2022-10-31T01:43:51;14.55;;;6.45;;
25569;SDS011;17955;45.542;9.238;2022-10-31T01:46:21;14.45;;;6.38;;
25569;SDS011;17955;45.542;9.238;2022-10-31T01:48:51;16.10;;;6.65;;
25569;SDS011;17955;45.542;9.238;2022-10-31T01:51:20;12.23;;;6.45;;
25569;SDS011;17955;45.542;9.238;2022-10-31T01:53:50;12.27;;;5.40;;
25569;SDS011;17955;45.542;9.238;2022-10-31T01:56:21;17.92;;;7.82;;
25569;SDS011;17955;45.542;9.238;2022-10-31T01:58:49;16.15;;;6.68;;
25569;SDS011;17955;45.542;9.238;2022-10-31T02:01:17;15.02;;;7.30;;
25569;SDS011;17955;45.542;9.238;2022-10-31T02:03:46;19.50;;;5.82;;
25569;SDS011;17955;45.542;9.238;2022-10-31T02:06:17;13.30;;;5.70;;
25569;SDS011;17955;45.542;9.238;2022-10-31T02:08:45;12.23;;;5.38;;
25569;SDS011;17955;45.542;9.238;2022-10-31T02:11:13;16.98;;;6.40;;
25569;SDS011;17955;45.542;9.238;2022-10-31T02:13:41;13.73;;;5.95;;
25569;SDS011;17955;45.542;9.238;2022-10-31T02:16:09;15.48;;;6.40;;
25569;SDS011;17955;45.542;9.238;2022-10-31T02:18:36;15.82;;;6.05;;
25569;SDS011;17955;45.542;9.238;2022-10-31T02:21:06;11.23;;;6.05;;
25569;SDS011;17955;45.542;9.238;2022-10-31T02:32:05;17.25;;;5.35;;
25569;SDS011;17955;45.542;9.238;2022-10-31T02:34:38;17.80;;;5.18;;
25569;SDS011;17955;45.542;9.238;2022-10-31T02:37:10;16.50;;;5.43;;
25569;SDS011;17955;45.542;9.238;2022-10-31T02:39:40;11.45;;;5.00;;
25569;SDS011;17955;45.542;9.238;2022-10-31T02:42:14;10.07;;;4.93;;
25569;SDS011;17955;45.542;9.238;2022-10-31T02:44:44;11.55;;;5.10;;
25569;SDS011;17955;45.542;9.238;2022-10-31T02:47:14;12.65;;;5.45;;
25569;SDS011;17955;45.542;9.238;2022-10-31T02:49:43;8.82;;;4.85;;
25569;SDS011;17955;45.542;9.238;2022-10-31T02:52:18;12.80;;;5.60;;
25569;SDS011;17955;45.542;9.238;2022-10-31T02:54:47;10.68;;;5.65;;
25569;SDS011;17955;45.542;9.238;2022-10-31T02:57:15;13.90;;;5.28;;
25569;SDS011;17955;45.542;9.238;2022-10-31T02:59:44;11.77;;;5.22;;
25569;SDS011;17955;45.542;9.238;2022-10-31T03:02:27;11.90;;;4.72;;
25569;SDS011;17955;45.542;9.238;2022-10-31T03:05:11;13.32;;;5.22;;
25569;SDS011;17955;45.542;9.238;2022-10-31T03:07:42;16.67;;;4.70;;
25569;SDS011;17955;45.542;9.238;2022-10-31T03:10:20;19.55;;;5.45;;
25569;SDS011;17955;45.542;9.238;2022-10-31T03:12:53;11.80;;;4.55;;
25569;SDS011;17955;45.542;9.238;2022-10-31T03:15:27;12.45;;;4.53;;
25569;SDS011;17955;45.542;9.238;2022-10-31T03:17:59;12.38;;;5.72;;
25569;SDS011;17955;45.542;9.238;2022-10-31T03:20:30;11.13;;;5.03;;
25569;SDS011;17955;45.542;9.238;2022-10-31T03:23:00;11.13;;;4.65;;
25569;SDS011;17955;45.542;9.238;2022-10-31T03:25:28;10.02;;;4.35;;
25569;SDS011;17955;45.542;9.238;2022-10-31T03:27:56;9.98;;;4.63;;
25569;SDS011;17955;45.542;9.238;2022-10-31T03:30:24;13.50;;;4.60;;
25569;SDS011;17955;45.542;9.238;2022-10-31T03:32:55;10.23;;;4.90;;
25569;SDS011;17955;45.542;9.238;2022-10-31T03:35:25;12.82;;;4.38;;
25569;SDS011;17955;45.542;9.238;2022-10-31T03:37:54;14.75;;;5.30;;
25569;SDS011;17955;45.542;9.238;2022-10-31T03:40:22;9.68;;;4.32;;
25569;SDS011;17955;45.542;9.238;2022-10-31T03:42:53;14.38;;;4.32;;
25569;SDS011;17955;45.542;9.238;2022-10-31T03:45:22;10.60;;;4.38;;
25569;SDS011;17955;45.542;9.238;2022-10-31T03:47:52;10.20;;;4.30;;
25569;SDS011;17955;45.542;9.238;2022-10-31T03:50:20;15.88;;;6.45;;
25569;SDS011;17955;45.542;9.238;2022-10-31T03:52:52;13.35;;;4.82;;
25569;SDS011;17955;45.542;9.238;2022-10-31T03:55:22;13.57;;;4.47;;
25569;SDS011;17955;45.542;9.238;2022-10-31T03:57:52;11.70;;;4.13;;
25569;SDS011;17955;45.542;9.238;2022-10-31T04:00:22;14.18;;;4.70;;
25569;SDS011;17955;45.542;9.238;2022-10-31T04:02:53;8.57;;;4.13;;
25569;SDS011;17955;45.542;9.238;2022-10-31T04:05:24;8.13;;;3.92;;
25569;SDS011;17955;45.542;9.238;2022-10-31T04:07:55;12.23;;;4.10;;
25569;SDS011;17955;45.542;9.238;2022-10-31T04:10:24;13.02;;;4.13;;
25569;SDS011;17955;45.542;9.238;2022-10-31T04:12:54;15.73;;;4.35;;
25569;SDS011;17955;45.542;9.238;2022-10-31T04:15:26;10.07;;;4.50;;
25569;SDS011;17955;45.542;9.238;2022-10-31T04:17:55;8.75;;;3.50;;
25569;SDS011;17955;45.542;9.238;2022-10-31T04:20:29;10.30;;;3.85;;
25569;SDS011;17955;45.542;9.238;2022-10-31T04:22:58;9.75;;;4.38;;
25569;SDS011;17955;45.542;9.238;2022-10-31T04:25:25;11.68;;;3.60;;
25569;SDS011;17955;45.542;9.238;2022-10-31T04:27:53;11.18;;;4.25;;
25569;SDS011;17955;45.542;9.238;2022-10-31T04:30:22;11.80;;;4.57;;
25569;SDS011;17955;45.542;9.238;2022-10-31T04:32:49;13.23;;;4.93;;
25569;SDS011;17955;45.542;9.238;2022-10-31T04:35:17;19.52;;;4.38;;
25569;SDS011;17955;45.542;9.238;2022-10-31T04:37:44;13.32;;;4.78;;
25569;SDS011;17955;45.542;9.238;2022-10-31T04:40:13;19.10;;;5.50;;
25569;SDS011;17955;45.542;9.238;2022-10-31T04:43:04;16.27;;;5.57;;
25569;SDS011;17955;45.542;9.238;2022-10-31T04:45:31;16.48;;;5.78;;
25569;SDS011;17955;45.542;9.238;2022-10-31T04:47:58;12.63;;;4.93;;
25569;SDS011;17955;45.542;9.238;2022-10-31T04:50:26;18.45;;;4.68;;
25569;SDS011;17955;45.542;9.238;2022-10-31T04:52:54;12.25;;;5.90;;
25569;SDS011;17955;45.542;9.238;2022-10-31T04:55:27;13.77;;;4.40;;
25569;SDS011;17955;45.542;9.238;2022-10-31T04:57:57;13.75;;;5.05;;
25569;SDS011;17955;45.542;9.238;2022-10-31T05:00:25;12.05;;;4.50;;
25569;SDS011;17955;45.542;9.238;2022-10-31T05:02:54;19.05;;;6.25;;
25569;SDS011;17955;45.542;9.238;2022-10-31T05:05:24;15.32;;;5.78;;
25569;SDS011;17955;45.542;9.238;2022-10-31T05:07:51;11.43;;;3.83;;
25569;SDS011;17955;45.542;9.238;2022-10-31T05:10:22;13.63;;;4.53;;
25569;SDS011;17955;45.542;9.238;2022-10-31T05:12:52;17.67;;;5.60;;
25569;SDS011;17955;45.542;9.238;2022-10-31T05:15:38;16.25;;;7.22;;
25569;SDS011;17955;45.542;9.238;2022-10-31T05:18:24;17.10;;;6.50;;
25569;SDS011;17955;45.542;9.238;2022-10-31T05:21:09;16.83;;;6.25;;
25569;SDS011;17955;45.542;9.238;2022-10-31T05:23:42;11.38;;;4.80;;
25569;SDS011;17955;45.542;9.238;2022-10-31T05:26:10;18.13;;;6.78;;
25569;SDS011;17955;45.542;9.238;2022-10-31T05:28:39;11.70;;;5.22;;
25569;SDS011;17955;45.542;9.238;2022-10-31T05:31:06;11.73;;;4.95;;
25569;SDS011;17955;45.542;9.238;2022-10-31T05:33:34;12.50;;;4.88;;
25569;SDS011;17955;45.542;9.238;2022-10-31T05:36:04;11.55;;;5.43;;
25569;SDS011;17955;45.542;9.238;2022-10-31T05:38:31;13.88;;;4.95;;
25569;SDS011;17955;45.542;9.238;2022-10-31T05:43:35;16.15;;;5.00;;
25569;SDS011;17955;45.542;9.238;2022-10-31T05:46:06;19.17;;;4.95;;
25569;SDS011;17955;45.542;9.238;2022-10-31T05:48:51;13.80;;;4.90;;
25569;SDS011;17955;45.542;9.238;2022-10-31T05:51:37;11.77;;;4.80;;
25569;SDS011;17955;45.542;9.238;2022-10-31T05:54:04;11.43;;;4.65;;
25569;SDS011;17955;45.542;9.238;2022-10-31T05:56:32;12.55;;;5.13;;
25569;SDS011;17955;45.542;9.238;2022-10-31T05:58:59;16.52;;;4.88;;
25569;SDS011;17955;45.542;9.238;2022-10-31T06:01:28;13.30;;;4.63;;
25569;SDS011;17955;45.542;9.238;2022-10-31T06:04:00;17.65;;;4.82;;
25569;SDS011;17955;45.542;9.238;2022-10-31T06:06:27;18.27;;;5.00;;
25569;SDS011;17955;45.542;9.238;2022-10-31T06:08:54;14.90;;;5.00;;
25569;SDS011;17955;45.542;9.238;2022-10-31T06:11:22;13.32;;;7.53;;
25569;SDS011;17955;45.542;9.238;2022-10-31T06:14:01;17.48;;;7.35;;
25569;SDS011;17955;45.542;9.238;2022-10-31T06:16:36;15.35;;;5.85;;
25569;SDS011;17955;45.542;9.238;2022-10-31T06:19:39;13.93;;;5.60;;
25569;SDS011;17955;45.542;9.238;2022-10-31T06:22:07;16.60;;;5.15;;
25569;SDS011;17955;45.542;9.238;2022-10-31T06:24:36;10.98;;;4.80;;
25569;SDS011;17955;45.542;9.238;2022-10-31T06:27:21;10.30;;;4.60;;
25569;SDS011;17955;45.542;9.238;2022-10-31T06:29:48;11.70;;;4.82;;
25569;SDS011;17955;45.542;9.238;2022-10-31T06:32:28;11.05;;;4.30;;
25569;SDS011;17955;45.542;9.238;2022-10-31T06:34:55;13.88;;;4.60;;
25569;SDS011;17955;45.542;9.238;2022-10-31T06:37:23;12.93;;;4.50;;
25569;SDS011;17955;45.542;9.238;2022-10-31T06:39:53;10.05;;;4.28;;
25569;SDS011;17955;45.542;9.238;2022-10-31T06:42:20;14.25;;;4.57;;
25569;SDS011;17955;45.542;9.238;2022-10-31T06:44:48;10.38;;;3.90;;
25569;SDS011;17955;45.542;9.238;2022-10-31T06:47:35;66.80;;;23.37;;
25569;SDS011;17955;45.542;9.238;2022-10-31T06:50:05;33.83;;;13.25;;
25569;SDS011;17955;45.542;9.238;2022-10-31T06:52:33;21.73;;;5.93;;
25569;SDS011;17955;45.542;9.238;2022-10-31T06:55:03;35.13;;;9.93;;
25569;SDS011;17955;45.542;9.238;2022-10-31T06:57:31;27.17;;;10.07;;
25569;SDS011;17955;45.542;9.238;2022-10-31T06:59:59;20.13;;;6.70;;
25569;SDS011;17955;45.542;9.238;2022-10-31T07:02:55;14.32;;;4.95;;
25569;SDS011;17955;45.542;9.238;2022-10-31T07:05:23;11.98;;;4.88;;
25569;SDS011;17955;45.542;9.238;2022-10-31T07:07:53;11.40;;;5.35;;
25569;SDS011;17955;45.542;9.238;2022-10-31T07:10:21;11.55;;;4.45;;
25569;SDS011;17955;45.542;9.238;2022-10-31T07:12:54;13.88;;;4.80;;
25569;SDS011;17955;45.542;9.238;2022-10-31T07:15:22;17.30;;;5.65;;
25569;SDS011;17955;45.542;9.238;2022-10-31T07:17:51;13.38;;;5.10;;
25569;SDS011;17955;45.542;9.238;2022-10-31T07:20:20;12.60;;;4.50;;
25569;SDS011;17955;45.542;9.238;2022-10-31T07:22:49;13.45;;;4.38;;
25569;SDS011;17955;45.542;9.238;2022-10-31T07:25:17;18.67;;;5.35;;
25569;SDS011;17955;45.542;9.238;2022-10-31T07:28:10;15.05;;;4.50;;
25569;SDS011;17955;45.542;9.238;2022-10-31T07:30:38;14.05;;;4.40;;
25569;SDS011;17955;45.542;9.238;2022-10-31T07:33:08;20.75;;;4.68;;
25569;SDS011;17955;45.542;9.238;2022-10-31T07:36:03;20.83;;;5.80;;
25569;SDS011;17955;45.542;9.238;2022-10-31T07:38:32;15.90;;;5.88;;
25569;SDS011;17955;45.542;9.238;2022-10-31T07:41:02;12.15;;;5.00;;
25569;SDS011;17955;45.542;9.238;2022-10-31T07:43:31;14.52;;;4.85;;
25569;SDS011;17955;45.542;9.238;2022-10-31T07:46:22;13.90;;;5.32;;
25569;SDS011;17955;45.542;9.238;2022-10-31T07:49:15;14.60;;;5.43;;
25569;SDS011;17955;45.542;9.238;2022-10-31T07:52:03;14.25;;;4.80;;
25569;SDS011;17955;45.542;9.238;2022-10-31T07:54:48;12.35;;;4.97;;
25569;SDS011;17955;45.542;9.238;2022-10-31T07:57:21;14.85;;;5.60;;
25569;SDS011;17955;45.542;9.238;2022-10-31T07:59:49;22.23;;;6.43;;
25569;SDS011;17955;45.542;9.238;2022-10-31T08:02:17;17.65;;;6.47;;
25569;SDS011;17955;45.542;9.238;2022-10-31T08:04:47;19.88;;;6.00;;
25569;SDS011;17955;45.542;9.238;2022-10-31T08:07:47;14.27;;;5.70;;
25569;SDS011;17955;45.542;9.238;2022-10-31T08:10:19;15.77;;;6.15;;
25569;SDS011;17955;45.542;9.238;2022-10-31T08:12:47;15.43;;;6.10;;
25569;SDS011;17955;45.542;9.238;2022-10-31T08:15:15;13.98;;;5.32;;
25569;SDS011;17955;45.542;9.238;2022-10-31T08:17:43;13.57;;;6.03;;
25569;SDS011;17955;45.542;9.238;2022-10-31T08:20:10;13.57;;;5.13;;
25569;SDS011;17955;45.542;9.238;2022-10-31T08:22:53;14.73;;;5.40;;
25569;SDS011;17955;45.542;9.238;2022-10-31T08:25:20;12.85;;;5.38;;
25569;SDS011;17955;45.542;9.238;2022-10-31T08:27:51;14.00;;;5.65;;
25569;SDS011;17955;45.542;9.238;2022-10-31T08:30:19;9.88;;;5.13;;
25569;SDS011;17955;45.542;9.238;2022-10-31T08:33:08;16.67;;;5.93;;
25569;SDS011;17955;45.542;9.238;2022-10-31T08:36:08;16.73;;;6.07;;
25569;SDS011;17955;45.542;9.238;2022-10-31T08:38:55;20.03;;;6.50;;
25569;SDS011;17955;45.542;9.238;2022-10-31T08:41:22;21.75;;;6.43;;
25569;SDS011;17955;45.542;9.238;2022-10-31T08:43:50;14.88;;;6.18;;
25569;SDS011;17955;45.542;9.238;2022-10-31T08:46:18;18.73;;;6.00;;
25569;SDS011;17955;45.542;9.238;2022-10-31T08:48:47;23.10;;;6.97;;
25569;SDS011;17955;45.542;9.238;2022-10-31T08:51:15;16.58;;;6.28;;
25569;SDS011;17955;45.542;9.238;2022-10-31T08:53:43;16.98;;;7.00;;
25569;SDS011;17955;45.542;9.238;2022-10-31T08:56:30;16.92;;;6.13;;
25569;SDS011;17955;45.542;9.238;2022-10-31T08:58:59;18.42;;;7.22;;
25569;SDS011;17955;45.542;9.238;2022-10-31T09:01:49;16.48;;;7.05;;
25569;SDS011;17955;45.542;9.238;2022-10-31T09:04:17;19.60;;;8.18;;
25569;SDS011;17955;45.542;9.238;2022-10-31T09:06:44;22.55;;;6.85;;
25569;SDS011;17955;45.542;9.238;2022-10-31T09:09:13;18.20;;;7.50;;
25569;SDS011;17955;45.542;9.238;2022-10-31T09:11:44;17.58;;;7.05;;
25569;SDS011;17955;45.542;9.238;2022-10-31T09:14:30;15.75;;;7.53;;
25569;SDS011;17955;45.542;9.238;2022-10-31T09:17:21;20.80;;;7.63;;
25569;SDS011;17955;45.542;9.238;2022-10-31T09:20:11;20.83;;;7.80;;
25569;SDS011;17955;45.542;9.238;2022-10-31T09:22:39;19.25;;;7.97;;
25569;SDS011;17955;45.542;9.238;2022-10-31T09:25:06;23.63;;;7.50;;
25569;SDS011;17955;45.542;9.238;2022-10-31T09:27:38;24.48;;;8.15;;
25569;SDS011;17955;45.542;9.238;2022-10-31T09:30:06;18.35;;;8.30;;
25569;SDS011;17955;45.542;9.238;2022-10-31T09:32:34;17.75;;;7.93;;
25569;SDS011;17955;45.542;9.238;2022-10-31T09:35:08;20.75;;;8.65;;
25569;SDS011;17955;45.542;9.238;2022-10-31T09:37:35;21.83;;;7.88;;
25569;SDS011;17955;45.542;9.238;2022-10-31T09:40:03;20.15;;;8.50;;
25569;SDS011;17955;45.542;9.238;2022-10-31T09:45:27;20.60;;;8.70;;
25569;SDS011;17955;45.542;9.238;2022-10-31T09:48:14;18.23;;;7.78;;
25569;SDS011;17955;45.542;9.238;2022-10-31T09:51:07;19.13;;;9.30;;
25569;SDS011;17955;45.542;9.238;2022-10-31T09:53:43;30.50;;;8.68;;
25569;SDS011;17955;45.542;9.238;2022-10-31T09:58:50;22.98;;;7.32;;
25569;SDS011;17955;45.542;9.238;2022-10-31T10:01:28;23.98;;;7.40;;
25569;SDS011;17955;45.542;9.238;2022-10-31T10:04:02;17.88;;;7.82;;
25569;SDS011;17955;45.542;9.238;2022-10-31T10:07:02;20.83;;;7.03;;
25569;SDS011;17955;45.542;9.238;2022-10-31T10:09:41;24.60;;;8.73;;
25569;SDS011;17955;45.542;9.238;2022-10-31T10:12:38;14.52;;;7.03;;
25569;SDS011;17955;45.542;9.238;2022-10-31T10:15:24;25.77;;;8.13;;
25569;SDS011;17955;45.542;9.238;2022-10-31T10:17:57;24.63;;;7.93;;
25569;SDS011;17955;45.542;9.238;2022-10-31T10:20:33;19.83;;;8.38;;
25569;SDS011;17955;45.542;9.238;2022-10-31T10:23:11;16.02;;;7.72;;
25569;SDS011;17955;45.542;9.238;2022-10-31T10:25:50;21.38;;;8.68;;
25569;SDS011;17955;45.542;9.238;2022-10-31T10:28:21;18.10;;;7.47;;
25569;SDS011;17955;45.542;9.238;2022-10-31T10:30:53;22.48;;;8.50;;
25569;SDS011;17955;45.542;9.238;2022-10-31T10:33:28;21.42;;;8.13;;
25569;SDS011;17955;45.542;9.238;2022-10-31T10:35:59;15.15;;;7.97;;
25569;SDS011;17955;45.542;9.238;2022-10-31T10:38:27;22.10;;;7.80;;
25569;SDS011;17955;45.542;9.238;2022-10-31T10:40:57;20.58;;;8.55;;
25569;SDS011;17955;45.542;9.238;2022-10-31T10:43:29;23.33;;;10.82;;
25569;SDS011;17955;45.542;9.238;2022-10-31T10:46:03;23.20;;;9.68;;
25569;SDS011;17955;45.542;9.238;2022-10-31T10:49:04;25.05;;;10.35;;
25569;SDS011;17955;45.542;9.238;2022-10-31T10:51:38;25.25;;;9.65;;
25569;SDS011;17955;45.542;9.238;2022-10-31T10:54:22;30.10;;;10.98;;
25569;SDS011;17955;45.542;9.238;2022-10-31T10:57:09;23.35;;;10.50;;
25569;SDS011;17955;45.542;9.238;2022-10-31T10:59:42;27.25;;;11.27;;
25569;SDS011;17955;45.542;9.238;2022-10-31T11:02:15;25.60;;;11.52;;
25569;SDS011;17955;45.542;9.238;2022-10-31T11:04:44;28.92;;;11.93;;
25569;SDS011;17955;45.542;9.238;2022-10-31T11:07:17;30.50;;;11.98;;
25569;SDS011;17955;45.542;9.238;2022-10-31T11:09:44;28.13;;;11.70;;
25569;SDS011;17955;45.542;9.238;2022-10-31T11:12:17;31.60;;;12.77;;
25569;SDS011;17955;45.542;9.238;2022-10-31T11:14:49;29.83;;;13.10;;
25569;SDS011;17955;45.542;9.238;2022-10-31T11:17:20;32.42;;;12.98;;
25569;SDS011;17955;45.542;9.238;2022-10-31T11:19:49;25.10;;;12.32;;
25569;SDS011;17955;45.542;9.238;2022-10-31T11:22:29;29.17;;;14.00;;
25569;SDS011;17955;45.542;9.238;2022-10-31T11:24:57;27.15;;;13.65;;
25569;SDS011;17955;45.542;9.238;2022-10-31T11:27:25;32.40;;;14.30;;
25569;SDS011;17955;45.542;9.238;2022-10-31T11:29:52;28.67;;;13.48;;
25569;SDS011;17955;45.542;9.238;2022-10-31T11:32:30;28.85;;;13.55;;
25569;SDS011;17955;45.542;9.238;2022-10-31T11:35:00;31.15;;;13.40;;
25569;SDS011;17955;45.542;9.238;2022-10-31T11:37:29;26.17;;;12.32;;
25569;SDS011;17955;45.542;9.238;2022-10-31T11:39:57;24.33;;;12.32;;
25569;SDS011;17955;45.542;9.238;2022-10-31T11:42:28;30.70;;;13.18;;
25569;SDS011;17955;45.542;9.238;2022-10-31T11:45:01;25.17;;;13.85;;
25569;SDS011;17955;45.542;9.238;2022-10-31T11:47:35;37.40;;;14.82;;
25569;SDS011;17955;45.542;9.238;2022-10-31T11:50:09;32.45;;;14.10;;
25569;SDS011;17955;45.542;9.238;2022-10-31T11:52:38;27.57;;;14.03;;
25569;SDS011;17955;45.542;9.238;2022-10-31T11:55:14;28.52;;;13.52;;
25569;SDS011;17955;45.542;9.238;2022-10-31T11:57:44;26.75;;;12.63;;
25569;SDS011;17955;45.542;9.238;2022-10-31T12:00:20;30.40;;;11.88;;
25569;SDS011;17955;45.542;9.238;2022-10-31T12:02:48;23.58;;;12.60;;
25569;SDS011;17955;45.542;9.238;2022-10-31T12:05:18;26.45;;;14.00;;
25569;SDS011;17955;45.542;9.238;2022-10-31T12:07:49;23.30;;;11.65;;
25569;SDS011;17955;45.542;9.238;2022-10-31T12:10:16;25.98;;;13.27;;
25569;SDS011;17955;45.542;9.238;2022-10-31T12:12:54;28.65;;;10.57;;
25569;SDS011;17955;45.542;9.238;2022-10-31T12:15:34;26.83;;;11.30;;
25569;SDS011;17955;45.542;9.238;2022-10-31T12:18:17;22.92;;;11.02;;
25569;SDS011;17955;45.542;9.238;2022-10-31T12:20:57;22.30;;;11.27;;
25569;SDS011;17955;45.542;9.238;2022-10-31T12:23:38;29.25;;;10.80;;
25569;SDS011;17955;45.542;9.238;2022-10-31T12:26:15;30.85;;;11.68;;
25569;SDS011;17955;45.542;9.238;2022-10-31T12:29:01;32.85;;;10.15;;
25569;SDS011;17955;45.542;9.238;2022-10-31T12:31:41;28.00;;;10.50;;
25569;SDS011;17955;45.542;9.238;2022-10-31T12:37:30;15.32;;;8.50;;
25569;SDS011;17955;45.542;9.238;2022-10-31T12:40:12;29.38;;;9.88;;
25569;SDS011;17955;45.542;9.238;2022-10-31T12:42:57;23.65;;;9.55;;
25569;SDS011;17955;45.542;9.238;2022-10-31T12:45:41;21.23;;;8.63;;
25569;SDS011;17955;45.542;9.238;2022-10-31T12:48:16;17.73;;;7.60;;
25569;SDS011;17955;45.542;9.238;2022-10-31T12:50:51;18.98;;;8.55;;
25569;SDS011;17955;45.542;9.238;2022-10-31T12:53:29;21.98;;;8.60;;
25569;SDS011;17955;45.542;9.238;2022-10-31T12:56:07;19.50;;;8.63;;
25569;SDS011;17955;45.542;9.238;2022-10-31T12:58:43;18.02;;;9.30;;
25569;SDS011;17955;45.542;9.238;2022-10-31T13:01:18;19.98;;;9.25;;
25569;SDS011;17955;45.542;9.238;2022-10-31T13:03:51;23.92;;;8.38;;
25569;SDS011;17955;45.542;9.238;2022-10-31T13:06:22;18.60;;;8.43;;
25569;SDS011;17955;45.542;9.238;2022-10-31T13:08:53;21.35;;;8.38;;
25569;SDS011;17955;45.542;9.238;2022-10-31T13:11:24;16.92;;;8.75;;
25569;SDS011;17955;45.542;9.238;2022-10-31T13:13:57;16.92;;;7.90;;
25569;SDS011;17955;45.542;9.238;2022-10-31T13:16:29;22.08;;;7.45;;
25569;SDS011;17955;45.542;9.238;2022-10-31T13:19:04;17.17;;;6.97;;
25569;SDS011;17955;45.542;9.238;2022-10-31T13:21:38;24.83;;;8.10;;
25569;SDS011;17955;45.542;9.238;2022-10-31T13:24:23;17.05;;;8.05;;
25569;SDS011;17955;45.542;9.238;2022-10-31T13:27:01;18.73;;;8.65;;
25569;SDS011;17955;45.542;9.238;2022-10-31T13:29:34;22.73;;;9.85;;
25569;SDS011;17955;45.542;9.238;2022-10-31T13:32:06;16.50;;;7.60;;
25569;SDS011;17955;45.542;9.238;2022-10-31T13:34:35;23.98;;;8.15;;
25569;SDS011;17955;45.542;9.238;2022-10-31T13:37:06;22.77;;;7.90;;
25569;SDS011;17955;45.542;9.238;2022-10-31T13:42:19;16.35;;;7.15;;
25569;SDS011;17955;45.542;9.238;2022-10-31T13:44:50;19.40;;;6.43;;
25569;SDS011;17955;45.542;9.238;2022-10-31T13:47:20;13.30;;;6.35;;
25569;SDS011;17955;45.542;9.238;2022-10-31T13:49:49;18.75;;;6.35;;
25569;SDS011;17955;45.542;9.238;2022-10-31T13:52:21;18.45;;;6.55;;
25569;SDS011;17955;45.542;9.238;2022-10-31T13:54:51;20.83;;;7.25;;
25569;SDS011;17955;45.542;9.238;2022-10-31T13:57:31;20.75;;;6.18;;
25569;SDS011;17955;45.542;9.238;2022-10-31T14:00:12;19.25;;;6.15;;
25569;SDS011;17955;45.542;9.238;2022-10-31T14:02:50;18.33;;;5.50;;
25569;SDS011;17955;45.542;9.238;2022-10-31T14:05:22;15.27;;;6.13;;
25569;SDS011;17955;45.542;9.238;2022-10-31T14:07:53;13.73;;;5.38;;
25569;SDS011;17955;45.542;9.238;2022-10-31T14:10:24;17.65;;;6.07;;
25569;SDS011;17955;45.542;9.238;2022-10-31T14:12:53;18.33;;;5.70;;
25569;SDS011;17955;45.542;9.238;2022-10-31T14:15:32;17.27;;;5.80;;
25569;SDS011;17955;45.542;9.238;2022-10-31T14:18:03;17.23;;;6.22;;
25569;SDS011;17955;45.542;9.238;2022-10-31T14:20:34;20.15;;;5.90;;
25569;SDS011;17955;45.542;9.238;2022-10-31T14:23:12;18.05;;;5.63;;
25569;SDS011;17955;45.542;9.238;2022-10-31T14:26:07;21.95;;;5.72;;
25569;SDS011;17955;45.542;9.238;2022-10-31T14:29:20;16.70;;;5.57;;
25569;SDS011;17955;45.542;9.238;2022-10-31T14:31:55;17.25;;;5.72;;
25569;SDS011;17955;45.542;9.238;2022-10-31T14:34:26;22.25;;;6.18;;
25569;SDS011;17955;45.542;9.238;2022-10-31T14:37:02;16.23;;;5.53;;
25569;SDS011;17955;45.542;9.238;2022-10-31T14:39:46;25.48;;;6.43;;
25569;SDS011;17955;45.542;9.238;2022-10-31T14:42:30;20.13;;;6.20;;
25569;SDS011;17955;45.542;9.238;2022-10-31T14:48:06;16.02;;;6.32;;
25569;SDS011;17955;45.542;9.238;2022-10-31T14:50:45;16.60;;;6.43;;
25569;SDS011;17955;45.542;9.238;2022-10-31T14:53:17;17.17;;;6.63;;
25569;SDS011;17955;45.542;9.238;2022-10-31T14:55:48;18.42;;;6.28;;
25569;SDS011;17955;45.542;9.238;2022-10-31T14:58:21;16.88;;;5.35;;
25569;SDS011;17955;45.542;9.238;2022-10-31T15:00:52;12.13;;;5.53;;
25569;SDS011;17955;45.542;9.238;2022-10-31T15:03:23;14.52;;;5.43;;
25569;SDS011;17955;45.542;9.238;2022-10-31T15:05:58;14.77;;;5.95;;
25569;SDS011;17955;45.542;9.238;2022-10-31T15:08:31;15.57;;;5.43;;
25569;SDS011;17955;45.542;9.238;2022-10-31T15:11:08;16.73;;;5.28;;
25569;SDS011;17955;45.542;9.238;2022-10-31T15:13:42;15.93;;;5.20;;
25569;SDS011;17955;45.542;9.238;2022-10-31T15:16:10;23.73;;;5.47;;
25569;SDS011;17955;45.542;9.238;2022-10-31T15:18:46;17.83;;;5.63;;
25569;SDS011;17955;45.542;9.238;2022-10-31T15:21:16;16.48;;;5.13;;
25569;SDS011;17955;45.542;9.238;2022-10-31T15:23:44;12.07;;;4.78;;
25569;SDS011;17955;45.542;9.238;2022-10-31T15:26:14;20.83;;;5.57;;
25569;SDS011;17955;45.542;9.238;2022-10-31T15:28:45;18.42;;;5.35;;
25569;SDS011;17955;45.542;9.238;2022-10-31T15:31:13;14.13;;;5.03;;